Time;durP1;ratioP1;P1;durP2;ratioP2;P2;SDS_P1;SDS_P2;PMS_P1;PMS_P2;Temp;Humidity;BMP_temperature;BMP_pressure;BME280_temperature;BME280_humidity;BME280_pressure;Samples;Min_cycle;Max_cycle;Signal;HPM_P1;HPM_P2
2022/04/01 00:01:02;;;;;;;19.67;6.93;;;;;;;;;;5013180;28;20223;-84
2022/04/01 00:03:29;;;;;;;21.07;7.27;;;;;;;;;;5013598;28;20630;-85
2022/04/01 00:05:56;;;;;;;18.63;5.13;;;;;;;;;;5013097;28;20211;-85
2022/04/01 00:08:25;;;;;;;9.63;4.40;;;;;;;;;;5012998;28;20238;-85
2022/04/01 00:10:52;;;;;;;15.60;5.20;;;;;;;;;;5013312;28;20679;-85
2022/04/01 00:13:21;;;;;;;21.33;6.93;;;;;;;;;;5013197;28;20255;-85
2022/04/01 00:15:48;;;;;;;15.93;5.43;;;;;;;;;;5012924;28;20195;-85
2022/04/01 00:18:15;;;;;;;10.80;4.63;;;;;;;;;;5013155;28;20274;-85
2022/04/01 00:20:42;;;;;;;14.93;5.97;;;;;;;;;;5012712;28;20202;-84
2022/04/01 00:23:12;;;;;;;15.87;6.07;;;;;;;;;;5012877;28;20195;-85
2022/04/01 00:25:41;;;;;;;12.33;5.83;;;;;;;;;;5012814;28;20210;-85
2022/04/01 00:28:10;;;;;;;15.67;6.37;;;;;;;;;;5013185;28;20197;-85
2022/04/01 00:30:38;;;;;;;15.83;5.40;;;;;;;;;;5012724;28;20217;-85
2022/04/01 00:33:08;;;;;;;16.60;5.27;;;;;;;;;;5012952;28;20290;-85
2022/04/01 00:35:35;;;;;;;13.20;5.30;;;;;;;;;;5012643;28;20242;-86
2022/04/01 00:38:02;;;;;;;17.53;6.27;;;;;;;;;;5012647;28;20239;-85
2022/04/01 00:40:30;;;;;;;14.43;5.33;;;;;;;;;;5012285;28;20207;-85
2022/04/01 00:42:59;;;;;;;12.07;5.90;;;;;;;;;;5012328;28;20233;-85
2022/04/01 00:45:27;;;;;;;14.27;5.57;;;;;;;;;;5012394;28;20195;-85
2022/04/01 00:48:01;;;;;;;27.80;6.57;;;;;;;;;;5012434;28;20290;-85
2022/04/01 00:50:29;;;;;;;18.03;7.30;;;;;;;;;;5012319;28;20189;-85
2022/04/01 00:52:56;;;;;;;17.10;7.30;;;;;;;;;;5012762;28;20196;-85
2022/04/01 00:55:23;;;;;;;15.57;5.10;;;;;;;;;;5012300;28;20228;-85
2022/04/01 00:57:51;;;;;;;20.43;6.43;;;;;;;;;;5012431;28;20676;-85
2022/04/01 01:00:20;;;;;;;17.57;6.47;;;;;;;;;;5012131;28;20203;-85
2022/04/01 01:02:47;;;;;;;15.80;6.43;;;;;;;;;;5012132;28;20223;-85
2022/04/01 01:05:14;;;;;;;18.40;6.60;;;;;;;;;;5012439;28;20234;-85
2022/04/01 01:07:43;;;;;;;16.87;5.57;;;;;;;;;;5012256;28;20199;-85
2022/04/01 01:10:13;;;;;;;14.60;5.57;;;;;;;;;;5012315;28;20200;-85
2022/04/01 01:12:41;;;;;;;19.93;6.37;;;;;;;;;;5012293;28;20249;-85
2022/04/01 01:15:10;;;;;;;18.40;5.87;;;;;;;;;;5012616;28;20582;-85
2022/04/01 01:17:39;;;;;;;15.30;6.80;;;;;;;;;;5012158;28;20206;-85
2022/04/01 01:20:12;;;;;;;17.53;6.17;;;;;;;;;;5015519;28;20206;-85
2022/04/01 01:22:41;;;;;;;17.37;7.10;;;;;;;;;;5016440;28;20696;-85
2022/04/01 01:25:12;;;;;;;16.23;6.43;;;;;;;;;;5016002;28;20206;-85
2022/04/01 01:27:40;;;;;;;15.63;6.53;;;;;;;;;;5016521;28;20546;-85
2022/04/01 01:30:08;;;;;;;15.30;5.77;;;;;;;;;;5016159;28;20199;-85
2022/04/01 01:32:36;;;;;;;23.67;5.77;;;;;;;;;;5015803;28;20195;-84
2022/04/01 01:35:03;;;;;;;16.53;5.77;;;;;;;;;;5015705;28;20234;-85
2022/04/01 01:37:30;;;;;;;17.40;6.63;;;;;;;;;;5015943;28;20703;-85
2022/04/01 01:39:59;;;;;;;20.53;6.67;;;;;;;;;;5016118;28;20204;-84
2022/04/01 01:42:28;;;;;;;12.83;5.67;;;;;;;;;;5015859;28;20230;-85
2022/04/01 01:44:58;;;;;;;18.37;6.43;;;;;;;;;;5016018;28;20206;-85
2022/04/01 01:47:25;;;;;;;17.77;6.93;;;;;;;;;;5015781;28;20214;-85
2022/04/01 01:55:22;;;;;;;23.60;6.47;;;;;;;;;;5015660;28;20190;-85
2022/04/01 01:57:51;;;;;;;14.60;6.13;;;;;;;;;;5015652;28;20286;-85
2022/04/01 02:00:22;;;;;;;21.13;6.10;;;;;;;;;;5015459;28;20699;-85
2022/04/01 02:02:49;;;;;;;16.60;7.27;;;;;;;;;;5015338;28;20298;-84
2022/04/01 02:05:17;;;;;;;13.70;5.23;;;;;;;;;;5015366;28;20202;-84
2022/04/01 02:07:47;;;;;;;21.03;6.33;;;;;;;;;;5015713;28;20199;-85
2022/04/01 02:10:15;;;;;;;14.63;4.30;;;;;;;;;;5015259;28;20205;-85
2022/04/01 02:12:42;;;;;;;13.60;5.83;;;;;;;;;;5015082;28;20203;-85
2022/04/01 02:15:12;;;;;;;17.83;6.97;;;;;;;;;;5015279;28;20201;-85
2022/04/01 02:17:39;;;;;;;21.70;6.77;;;;;;;;;;5015569;28;20199;-85
2022/04/01 02:20:09;;;;;;;19.93;8.67;;;;;;;;;;5015221;28;20204;-84
2022/04/01 02:22:37;;;;;;;23.77;7.00;;;;;;;;;;5015190;28;20231;-84
2022/04/01 02:25:07;;;;;;;15.73;5.43;;;;;;;;;;5015078;28;20715;-85
2022/04/01 02:27:34;;;;;;;23.43;6.50;;;;;;;;;;5015150;28;20195;-85
2022/04/01 02:30:10;;;;;;;24.43;7.33;;;;;;;;;;5014692;28;20290;-85
2022/04/01 02:32:39;;;;;;;20.67;6.77;;;;;;;;;;5014897;28;20191;-85
2022/04/01 02:35:07;;;;;;;22.50;8.67;;;;;;;;;;5014861;28;20235;-84
2022/04/01 02:37:34;;;;;;;31.77;9.63;;;;;;;;;;5015155;28;20676;-83
2022/04/01 02:40:02;;;;;;;21.97;8.27;;;;;;;;;;5014494;28;20699;-84
2022/04/01 02:42:29;;;;;;;20.13;8.83;;;;;;;;;;5014955;28;20607;-84
2022/04/01 02:44:56;;;;;;;24.50;9.43;;;;;;;;;;5014484;28;20239;-84
2022/04/01 02:47:24;;;;;;;19.67;6.73;;;;;;;;;;5014646;28;20226;-84
2022/04/01 02:49:53;;;;;;;25.87;6.83;;;;;;;;;;5014123;28;20203;-84
2022/04/01 02:52:20;;;;;;;29.43;8.63;;;;;;;;;;5014422;28;20380;-84
2022/04/01 02:54:48;;;;;;;41.30;8.90;;;;;;;;;;5014495;28;20207;-84
2022/04/01 02:57:15;;;;;;;34.10;8.97;;;;;;;;;;5014398;28;20286;-84
2022/04/01 02:59:42;;;;;;;40.40;9.47;;;;;;;;;;5014249;28;20200;-84
2022/04/01 03:02:09;;;;;;;26.63;8.60;;;;;;;;;;5014176;28;20235;-84
2022/04/01 03:04:37;;;;;;;23.83;7.37;;;;;;;;;;5014137;28;20199;-84
2022/04/01 03:07:06;;;;;;;23.60;6.83;;;;;;;;;;5014264;28;20203;-84
2022/04/01 03:09:34;;;;;;;29.13;8.20;;;;;;;;;;5013816;28;20203;-84
2022/04/01 03:12:01;;;;;;;26.37;8.63;;;;;;;;;;5014456;28;20203;-84
2022/04/01 03:14:28;;;;;;;20.97;6.73;;;;;;;;;;5014062;28;20294;-84
2022/04/01 03:16:56;;;;;;;29.40;7.97;;;;;;;;;;5014264;28;20681;-85
2022/04/01 03:19:23;;;;;;;32.63;8.97;;;;;;;;;;5013788;28;20730;-84
2022/04/01 03:21:50;;;;;;;34.70;7.70;;;;;;;;;;5013897;28;20286;-85
2022/04/01 03:24:19;;;;;;;32.50;8.77;;;;;;;;;;5013883;28;20671;-85
2022/04/01 03:26:47;;;;;;;19.80;8.60;;;;;;;;;;5012546;28;20223;-83
2022/04/01 03:29:14;;;;;;;36.40;9.43;;;;;;;;;;5013226;28;20203;-83
2022/04/01 03:31:42;;;;;;;28.00;7.33;;;;;;;;;;5013452;28;20676;-83
2022/04/01 03:34:09;;;;;;;30.13;7.07;;;;;;;;;;5013163;28;20204;-82
2022/04/01 03:36:36;;;;;;;24.20;6.77;;;;;;;;;;5013900;28;20550;-83
2022/04/01 03:39:04;;;;;;;21.67;8.37;;;;;;;;;;5016775;28;20210;-80
2022/04/01 03:41:33;;;;;;;33.77;8.33;;;;;;;;;;5013217;28;20568;-82
2022/04/01 03:44:01;;;;;;;31.43;8.30;;;;;;;;;;5013524;28;20223;-82
2022/04/01 03:46:45;;;;;;;24.93;7.47;;;;;;;;;;5013355;28;20196;-82
2022/04/01 03:49:14;;;;;;;28.93;8.23;;;;;;;;;;5011621;28;20722;-83
2022/04/01 03:51:44;;;;;;;17.57;6.97;;;;;;;;;;5012216;28;20203;-82
2022/04/01 03:54:11;;;;;;;23.07;6.27;;;;;;;;;;5012326;28;20759;-82
2022/04/01 03:56:40;;;;;;;24.10;7.03;;;;;;;;;;5012135;28;20203;-82
2022/04/01 03:59:09;;;;;;;32.40;8.57;;;;;;;;;;5012163;28;20644;-83
2022/04/01 04:01:37;;;;;;;29.57;10.23;;;;;;;;;;5011666;28;20261;-82
2022/04/01 04:04:05;;;;;;;26.33;7.23;;;;;;;;;;5009523;28;20587;-83
2022/04/01 04:06:34;;;;;;;27.70;7.87;;;;;;;;;;5000659;28;20222;-82
2022/04/01 04:09:02;;;;;;;19.10;7.40;;;;;;;;;;4992439;28;20200;-83
2022/04/01 04:11:31;;;;;;;31.37;7.43;;;;;;;;;;4992003;28;20204;-83
2022/04/01 04:14:01;;;;;;;25.30;7.53;;;;;;;;;;5001866;28;20285;-82
2022/04/01 04:16:30;;;;;;;21.30;6.90;;;;;;;;;;4992498;28;20192;-83
2022/04/01 04:19:03;;;;;;;29.43;9.33;;;;;;;;;;4992121;28;20267;-83
2022/04/01 04:21:31;;;;;;;26.33;9.90;;;;;;;;;;4992167;28;20196;-83
2022/04/01 04:23:59;;;;;;;28.10;6.60;;;;;;;;;;4991639;28;20236;-83
2022/04/01 04:26:32;;;;;;;20.13;6.53;;;;;;;;;;5003112;28;20210;-83
2022/04/01 04:29:07;;;;;;;27.50;9.00;;;;;;;;;;5012464;28;20588;-85
2022/04/01 04:31:36;;;;;;;27.43;8.57;;;;;;;;;;5012458;28;20715;-86
2022/04/01 04:34:05;;;;;;;29.87;9.97;;;;;;;;;;5012201;28;20206;-87
2022/04/01 04:36:38;;;;;;;43.63;22.20;;;;;;;;;;5013405;28;20190;-84
2022/04/01 04:39:06;;;;;;;43.17;26.70;;;;;;;;;;5012779;28;20187;-86
2022/04/01 04:41:34;;;;;;;23.73;14.73;;;;;;;;;;5011812;28;20211;-86
2022/04/01 04:44:03;;;;;;;29.50;15.70;;;;;;;;;;4998366;28;20228;-86
2022/04/01 04:46:31;;;;;;;40.23;14.07;;;;;;;;;;4993049;28;20196;-86
2022/04/01 04:48:59;;;;;;;14.50;7.70;;;;;;;;;;4993340;28;20204;-86
2022/04/01 04:51:28;;;;;;;19.10;7.77;;;;;;;;;;4993041;28;20713;-86
2022/04/01 04:53:56;;;;;;;25.97;9.43;;;;;;;;;;4992760;28;20578;-87
2022/04/01 04:56:26;;;;;;;26.80;8.60;;;;;;;;;;4993575;28;20204;-87
2022/04/01 04:58:54;;;;;;;33.37;15.90;;;;;;;;;;4993404;28;20192;-87
2022/04/01 05:01:35;;;;;;;29.10;10.20;;;;;;;;;;4993033;28;20204;-87
2022/04/01 05:04:18;;;;;;;32.70;8.60;;;;;;;;;;4993253;28;20273;-87
2022/04/01 05:06:51;;;;;;;38.17;13.53;;;;;;;;;;4993376;28;20641;-87
2022/04/01 05:09:26;;;;;;;20.53;9.13;;;;;;;;;;4993357;28;20625;-87
2022/04/01 05:12:00;;;;;;;27.73;9.43;;;;;;;;;;4993178;28;20188;-87
2022/04/01 05:14:34;;;;;;;22.40;9.07;;;;;;;;;;4993064;28;20192;-87
2022/04/01 05:17:04;;;;;;;32.83;8.23;;;;;;;;;;4993527;28;20687;-87
2022/04/01 05:19:36;;;;;;;23.63;8.37;;;;;;;;;;4993277;28;20204;-88
2022/04/01 05:22:04;;;;;;;26.77;9.43;;;;;;;;;;4993777;28;20181;-87
2022/04/01 05:24:39;;;;;;;36.90;9.73;;;;;;;;;;4993305;28;20223;-87
2022/04/01 05:27:09;;;;;;;24.77;9.63;;;;;;;;;;4993260;28;20199;-87
2022/04/01 05:29:40;;;;;;;18.47;6.30;;;;;;;;;;4992993;28;20189;-87
2022/04/01 05:32:11;;;;;;;27.43;9.03;;;;;;;;;;4993232;28;20210;-87
2022/04/01 05:34:41;;;;;;;25.53;13.47;;;;;;;;;;4992799;28;20294;-87
2022/04/01 05:37:09;;;;;;;22.47;8.10;;;;;;;;;;4993064;28;20215;-87
2022/04/01 05:39:38;;;;;;;14.07;7.67;;;;;;;;;;4993017;28;20200;-87
2022/04/01 05:42:06;;;;;;;41.57;11.03;;;;;;;;;;4993171;28;20200;-87
2022/04/01 05:44:35;;;;;;;30.80;9.37;;;;;;;;;;4992684;28;20224;-87
2022/04/01 05:47:02;;;;;;;20.83;8.33;;;;;;;;;;4993402;28;20197;-87
2022/04/01 05:49:31;;;;;;;25.53;11.03;;;;;;;;;;4993191;28;20215;-87
2022/04/01 05:51:59;;;;;;;29.57;10.40;;;;;;;;;;5008210;28;20216;-87
2022/04/01 05:54:27;;;;;;;29.97;10.03;;;;;;;;;;5012537;28;20664;-87
2022/04/01 05:56:54;;;;;;;29.37;12.37;;;;;;;;;;5012525;28;20201;-87
2022/04/01 05:59:23;;;;;;;19.63;8.20;;;;;;;;;;5012668;28;20202;-87
2022/04/01 06:01:58;;;;;;;31.13;11.23;;;;;;;;;;5012441;28;20201;-87
2022/04/01 06:04:58;;;;;;;24.53;8.40;;;;;;;;;;5012688;28;20686;-87
2022/04/01 06:07:35;;;;;;;29.53;9.80;;;;;;;;;;5011322;28;20209;-87
2022/04/01 06:10:09;;;;;;;31.93;8.57;;;;;;;;;;5016467;28;20645;-87
2022/04/01 06:12:45;;;;;;;28.87;9.40;;;;;;;;;;5015779;28;20199;-87
2022/04/01 06:15:19;;;;;;;31.50;9.07;;;;;;;;;;5015944;28;20191;-87
2022/04/01 06:17:57;;;;;;;113.50;63.17;;;;;;;;;;5015869;28;20198;-87
2022/04/01 06:20:26;;;;;;;62.30;15.97;;;;;;;;;;5016054;28;20599;-87
2022/04/01 06:23:01;;;;;;;30.07;12.53;;;;;;;;;;5015728;28;20293;-87
2022/04/01 06:25:32;;;;;;;30.30;14.73;;;;;;;;;;5015714;28;20182;-87
2022/04/01 06:28:09;;;;;;;26.90;9.23;;;;;;;;;;5015527;28;20203;-87
2022/04/01 06:30:38;;;;;;;30.73;9.60;;;;;;;;;;5015798;28;20193;-86
2022/04/01 06:33:09;;;;;;;24.37;7.67;;;;;;;;;;5015547;28;20198;-87
2022/04/01 06:35:43;;;;;;;20.17;8.03;;;;;;;;;;5015444;28;20245;-87
2022/04/01 06:38:19;;;;;;;23.37;7.37;;;;;;;;;;5015594;28;20271;-87
2022/04/01 06:40:48;;;;;;;21.93;8.57;;;;;;;;;;5015341;28;20667;-87
2022/04/01 06:43:16;;;;;;;18.43;6.43;;;;;;;;;;5015235;28;20230;-87
2022/04/01 06:45:43;;;;;;;16.00;7.07;;;;;;;;;;5015224;28;20203;-87
2022/04/01 06:48:11;;;;;;;24.87;8.53;;;;;;;;;;5013970;28;20242;-87
2022/04/01 06:50:38;;;;;;;19.77;7.97;;;;;;;;;;5011738;28;20215;-87
2022/04/01 06:53:06;;;;;;;35.57;12.60;;;;;;;;;;5015046;28;20195;-87
2022/04/01 06:55:35;;;;;;;27.00;11.87;;;;;;;;;;5015353;28;20222;-87
2022/04/01 06:58:05;;;;;;;17.67;9.23;;;;;;;;;;5014937;28;20195;-87
2022/04/01 07:00:32;;;;;;;24.13;8.20;;;;;;;;;;5014922;28;20210;-88
2022/04/01 07:03:00;;;;;;;20.47;7.27;;;;;;;;;;5014987;28;20627;-87
2022/04/01 07:05:27;;;;;;;20.97;7.83;;;;;;;;;;5014790;28;20199;-87
2022/04/01 07:07:54;;;;;;;24.57;8.70;;;;;;;;;;5014953;28;20261;-87
2022/04/01 07:10:22;;;;;;;16.40;6.73;;;;;;;;;;5014938;28;20196;-88
2022/04/01 07:12:51;;;;;;;28.40;8.03;;;;;;;;;;5014835;28;20218;-87
2022/04/01 07:15:18;;;;;;;18.77;7.43;;;;;;;;;;5014660;28;20203;-87
2022/04/01 07:17:45;;;;;;;29.97;7.33;;;;;;;;;;5013815;28;20195;-87
2022/04/01 07:20:13;;;;;;;29.53;7.93;;;;;;;;;;5014543;28;20698;-87
2022/04/01 07:22:40;;;;;;;21.00;7.87;;;;;;;;;;5014556;28;20207;-87
2022/04/01 07:25:09;;;;;;;14.97;6.27;;;;;;;;;;5014646;28;20738;-88
2022/04/01 07:27:38;;;;;;;14.30;7.40;;;;;;;;;;5014765;28;20685;-87
2022/04/01 07:30:08;;;;;;;30.50;10.23;;;;;;;;;;5014538;28;20334;-88
2022/04/01 07:32:36;;;;;;;27.07;7.77;;;;;;;;;;5014364;28;20199;-88
2022/04/01 07:35:06;;;;;;;22.43;8.37;;;;;;;;;;5014091;28;20242;-88
2022/04/01 07:37:33;;;;;;;26.27;10.80;;;;;;;;;;5014462;28;20195;-88
2022/04/01 07:40:01;;;;;;;17.47;7.33;;;;;;;;;;5014249;28;20195;-88
2022/04/01 07:42:29;;;;;;;18.77;7.57;;;;;;;;;;5014230;28;20201;-88
2022/04/01 07:44:57;;;;;;;24.13;7.73;;;;;;;;;;5014324;28;20227;-88
2022/04/01 07:47:26;;;;;;;28.63;13.80;;;;;;;;;;5014369;28;20192;-88
2022/04/01 07:49:53;;;;;;;15.17;8.47;;;;;;;;;;5014249;28;20215;-88
2022/04/01 07:52:22;;;;;;;16.53;6.50;;;;;;;;;;5014528;28;20572;-88
2022/04/01 07:54:49;;;;;;;12.80;5.23;;;;;;;;;;5013894;28;20199;-88
2022/04/01 07:57:17;;;;;;;14.70;7.33;;;;;;;;;;5014181;28;20684;-88
2022/04/01 07:59:46;;;;;;;24.60;7.73;;;;;;;;;;5013985;28;20206;-88
2022/04/01 08:02:14;;;;;;;15.67;7.07;;;;;;;;;;5014190;28;20278;-88
2022/04/01 08:04:42;;;;;;;33.80;8.70;;;;;;;;;;5014211;28;20224;-88
2022/04/01 08:07:10;;;;;;;26.93;9.20;;;;;;;;;;5013825;28;20240;-88
2022/04/01 08:09:37;;;;;;;18.03;7.03;;;;;;;;;;5013775;28;20203;-87
2022/04/01 08:12:05;;;;;;;29.90;7.90;;;;;;;;;;5013838;28;20255;-88
2022/04/01 08:14:36;;;;;;;14.77;5.40;;;;;;;;;;5013995;28;20203;-87
2022/04/01 08:17:04;;;;;;;24.20;7.30;;;;;;;;;;5013655;28;20198;-88
2022/04/01 08:19:31;;;;;;;35.93;8.47;;;;;;;;;;5013740;28;20208;-88
2022/04/01 08:22:00;;;;;;;14.20;5.37;;;;;;;;;;5014007;28;20587;-88
2022/04/01 08:24:27;;;;;;;13.70;5.17;;;;;;;;;;5013524;28;20227;-88
2022/04/01 08:26:55;;;;;;;15.17;6.93;;;;;;;;;;5013693;28;20575;-88
2022/04/01 08:29:23;;;;;;;17.47;6.83;;;;;;;;;;5013306;28;20678;-88
2022/04/01 08:31:50;;;;;;;17.00;5.77;;;;;;;;;;5013533;28;20668;-88
2022/04/01 08:34:17;;;;;;;24.73;6.43;;;;;;;;;;5013121;28;20199;-88
2022/04/01 08:36:44;;;;;;;21.53;8.57;;;;;;;;;;5013382;28;20198;-88
2022/04/01 08:39:13;;;;;;;21.50;5.70;;;;;;;;;;5013244;28;20882;-88
2022/04/01 08:41:40;;;;;;;15.57;6.93;;;;;;;;;;5013209;28;20212;-88
2022/04/01 08:44:07;;;;;;;26.27;8.93;;;;;;;;;;5013275;28;20223;-88
2022/04/01 08:46:35;;;;;;;34.07;7.03;;;;;;;;;;5013149;28;20200;-88
2022/04/01 08:49:03;;;;;;;23.47;7.33;;;;;;;;;;5013108;28;20206;-88
2022/04/01 08:51:30;;;;;;;37.27;15.67;;;;;;;;;;5013436;28;20618;-88
2022/04/01 08:53:58;;;;;;;19.83;9.63;;;;;;;;;;5013265;28;20218;-88
2022/04/01 08:56:26;;;;;;;34.20;13.13;;;;;;;;;;5013072;28;20212;-88
2022/04/01 08:58:53;;;;;;;25.97;12.33;;;;;;;;;;5013513;28;20206;-88
2022/04/01 09:01:21;;;;;;;36.10;12.50;;;;;;;;;;5013416;28;20210;-88
2022/04/01 09:03:48;;;;;;;40.23;15.93;;;;;;;;;;5013071;28;20702;-88
2022/04/01 09:06:15;;;;;;;47.10;10.23;;;;;;;;;;5013269;28;20207;-88
2022/04/01 09:08:44;;;;;;;23.40;8.63;;;;;;;;;;5013291;28;20213;-88
2022/04/01 09:11:12;;;;;;;30.97;10.63;;;;;;;;;;5013328;28;20198;-89
2022/04/01 09:13:52;;;;;;;20.80;6.63;;;;;;;;;;5013241;28;20208;-88
2022/04/01 09:16:28;;;;;;;18.50;6.90;;;;;;;;;;5012906;28;20193;-88
2022/04/01 09:18:56;;;;;;;30.43;8.73;;;;;;;;;;5013260;28;20195;-87
2022/04/01 09:21:28;;;;;;;18.70;7.37;;;;;;;;;;5013163;28;20195;-88
2022/04/01 09:23:56;;;;;;;18.83;7.87;;;;;;;;;;5012698;28;20227;-88
2022/04/01 09:26:29;;;;;;;20.70;9.63;;;;;;;;;;5012754;28;20707;-88
2022/04/01 09:28:59;;;;;;;42.20;18.30;;;;;;;;;;5013304;28;20572;-88
2022/04/01 09:31:26;;;;;;;53.30;12.77;;;;;;;;;;5013182;28;20293;-88
2022/04/01 09:33:54;;;;;;;34.87;12.30;;;;;;;;;;5012785;28;20192;-88
2022/04/01 09:36:24;;;;;;;20.37;7.73;;;;;;;;;;5008864;28;20316;-88
2022/04/01 09:38:57;;;;;;;24.70;7.47;;;;;;;;;;5012762;28;20222;-88
2022/04/01 09:41:31;;;;;;;18.87;6.93;;;;;;;;;;5016548;28;20584;-88
2022/04/01 09:44:09;;;;;;;16.60;5.27;;;;;;;;;;5016454;28;20211;-88
2022/04/01 09:46:42;;;;;;;25.43;7.93;;;;;;;;;;5016498;28;20254;-88
2022/04/01 09:49:10;;;;;;;17.27;8.17;;;;;;;;;;5016569;28;20191;-88
2022/04/01 09:51:42;;;;;;;50.43;22.00;;;;;;;;;;5016346;28;20687;-88
2022/04/01 09:54:10;;;;;;;22.23;12.13;;;;;;;;;;5016682;28;20571;-88
2022/04/01 09:56:42;;;;;;;32.10;10.30;;;;;;;;;;5016307;28;20206;-88
2022/04/01 09:59:12;;;;;;;18.87;9.33;;;;;;;;;;5016281;28;20194;-88
2022/04/01 10:01:40;;;;;;;23.47;6.80;;;;;;;;;;5016414;28;20187;-88
2022/04/01 10:04:09;;;;;;;19.43;6.33;;;;;;;;;;5016766;28;20239;-89
2022/04/01 10:06:37;;;;;;;23.03;7.40;;;;;;;;;;5016210;28;20199;-88
2022/04/01 10:09:06;;;;;;;25.93;8.17;;;;;;;;;;5016109;28;20195;-88
2022/04/01 10:11:35;;;;;;;50.97;8.73;;;;;;;;;;5016406;28;20200;-88
2022/04/01 10:14:04;;;;;;;26.20;7.20;;;;;;;;;;5016007;28;20676;-88
2022/04/01 10:16:35;;;;;;;27.83;9.13;;;;;;;;;;5016144;28;20291;-88
2022/04/01 10:19:07;;;;;;;11.23;6.70;;;;;;;;;;5016212;28;20732;-88
2022/04/01 10:21:36;;;;;;;13.30;5.60;;;;;;;;;;5016079;28;20191;-88
2022/04/01 10:24:12;;;;;;;37.83;7.50;;;;;;;;;;5015786;28;20196;-88
2022/04/01 10:26:43;;;;;;;19.83;6.73;;;;;;;;;;5015917;28;20633;-88
2022/04/01 10:29:10;;;;;;;31.70;9.23;;;;;;;;;;5015821;28;20188;-88
2022/04/01 10:31:42;;;;;;;14.80;5.00;;;;;;;;;;5015860;28;20199;-89
2022/04/01 10:34:22;;;;;;;24.63;6.93;;;;;;;;;;5015862;28;20629;-89
2022/04/01 10:36:57;;;;;;;19.07;6.20;;;;;;;;;;5015994;28;20199;-88
2022/04/01 10:39:26;;;;;;;25.17;6.33;;;;;;;;;;5015589;28;20198;-88
2022/04/01 10:42:11;;;;;;;23.17;7.30;;;;;;;;;;5015673;28;20191;-88
2022/04/01 10:44:50;;;;;;;30.87;9.27;;;;;;;;;;5015697;28;20637;-88
2022/04/01 10:47:19;;;;;;;25.20;8.27;;;;;;;;;;5015874;28;20636;-88
2022/04/01 10:52:31;;;;;;;21.57;8.00;;;;;;;;;;5014726;28;20187;-88
2022/04/01 10:55:18;;;;;;;27.00;9.00;;;;;;;;;;5015233;28;20664;-89
2022/04/01 10:57:46;;;;;;;28.07;7.13;;;;;;;;;;5015338;28;20195;-89
2022/04/01 11:00:16;;;;;;;30.23;7.87;;;;;;;;;;5015523;28;20229;-88
2022/04/01 11:02:47;;;;;;;23.00;7.40;;;;;;;;;;5015239;28;20686;-88
2022/04/01 11:05:25;;;;;;;31.30;8.00;;;;;;;;;;5015293;28;20269;-89
2022/04/01 11:08:15;;;;;;;20.90;5.37;;;;;;;;;;5015291;28;20270;-88
2022/04/01 11:11:06;;;;;;;30.40;7.90;;;;;;;;;;5015265;28;20199;-89
2022/04/01 11:13:34;;;;;;;26.60;8.33;;;;;;;;;;5015227;28;20199;-88
2022/04/01 11:16:19;;;;;;;19.37;7.07;;;;;;;;;;5014769;28;20238;-89
2022/04/01 11:19:18;;;;;;;29.83;6.53;;;;;;;;;;5015216;28;20219;-88
2022/04/01 11:21:47;;;;;;;24.30;5.97;;;;;;;;;;5007745;28;20214;-88
2022/04/01 11:24:25;;;;;;;11.70;6.50;;;;;;;;;;5014890;28;20620;-88
2022/04/01 11:26:52;;;;;;;21.43;7.83;;;;;;;;;;5014587;28;20687;-89
2022/04/01 11:29:22;;;;;;;24.67;7.00;;;;;;;;;;5014919;28;20561;-88
2022/04/01 11:31:49;;;;;;;23.07;6.77;;;;;;;;;;5014874;28;20226;-88
2022/04/01 11:34:16;;;;;;;23.73;7.33;;;;;;;;;;5014321;28;20195;-89
2022/04/01 11:36:46;;;;;;;30.07;7.70;;;;;;;;;;5014739;28;20637;-88
2022/04/01 11:39:17;;;;;;;19.40;7.00;;;;;;;;;;5014630;28;20191;-88
2022/04/01 11:41:51;;;;;;;26.20;7.53;;;;;;;;;;5014502;28;20206;-88
2022/04/01 11:44:18;;;;;;;25.23;7.97;;;;;;;;;;5014134;28;20187;-89
2022/04/01 11:46:53;;;;;;;25.27;7.80;;;;;;;;;;5014275;28;20196;-88
2022/04/01 11:49:20;;;;;;;37.93;9.50;;;;;;;;;;5014520;28;20282;-88
2022/04/01 11:51:49;;;;;;;32.67;7.90;;;;;;;;;;5014070;28;20206;-88
2022/04/01 11:54:17;;;;;;;20.00;7.03;;;;;;;;;;5014044;28;20195;-88
2022/04/01 11:56:45;;;;;;;34.33;10.77;;;;;;;;;;5013833;28;20199;-89
2022/04/01 11:59:12;;;;;;;24.53;7.37;;;;;;;;;;5013933;28;20199;-88
2022/04/01 12:01:54;;;;;;;25.07;9.03;;;;;;;;;;5013917;28;20203;-88
2022/04/01 12:04:28;;;;;;;19.50;6.60;;;;;;;;;;5013776;28;20191;-89
2022/04/01 12:09:44;;;;;;;31.80;9.43;;;;;;;;;;5014190;28;20186;-88
2022/04/01 12:12:11;;;;;;;27.93;7.00;;;;;;;;;;5014301;28;20206;-89
2022/04/01 12:14:40;;;;;;;27.63;8.73;;;;;;;;;;5013882;28;20199;-88
2022/04/01 12:17:08;;;;;;;17.60;8.10;;;;;;;;;;5013835;28;20206;-89
2022/04/01 12:19:36;;;;;;;43.13;9.83;;;;;;;;;;5014038;28;20618;-88
2022/04/01 12:22:05;;;;;;;27.43;9.70;;;;;;;;;;5014033;28;20199;-89
2022/04/01 12:24:34;;;;;;;39.80;10.60;;;;;;;;;;5013518;28;20200;-88
2022/04/01 12:27:01;;;;;;;30.53;10.03;;;;;;;;;;5013961;28;20206;-88
2022/04/01 12:29:30;;;;;;;24.83;8.43;;;;;;;;;;5013434;28;20200;-88
2022/04/01 12:31:59;;;;;;;24.73;6.50;;;;;;;;;;5013860;28;20199;-89
2022/04/01 12:34:27;;;;;;;28.70;6.70;;;;;;;;;;5013403;28;20712;-89
2022/04/01 12:36:59;;;;;;;32.70;9.47;;;;;;;;;;5013614;28;20184;-89
2022/04/01 12:39:28;;;;;;;21.70;8.10;;;;;;;;;;5013647;28;20576;-89
2022/04/01 12:41:57;;;;;;;21.30;6.73;;;;;;;;;;5013297;28;20223;-88
2022/04/01 12:44:27;;;;;;;47.27;8.47;;;;;;;;;;5013520;28;20206;-89
2022/04/01 12:46:55;;;;;;;21.10;5.43;;;;;;;;;;5013371;28;20227;-88
2022/04/01 12:49:23;;;;;;;18.80;7.40;;;;;;;;;;5013291;28;20209;-88
2022/04/01 12:51:53;;;;;;;19.80;6.57;;;;;;;;;;5013366;28;20664;-88
2022/04/01 12:54:32;;;;;;;21.60;7.37;;;;;;;;;;5013195;28;20282;-88
2022/04/01 12:57:01;;;;;;;23.53;6.87;;;;;;;;;;5013518;28;20187;-88
2022/04/01 12:59:33;;;;;;;23.87;7.40;;;;;;;;;;5013287;28;20191;-88
2022/04/01 13:02:02;;;;;;;21.83;9.63;;;;;;;;;;5013626;28;20187;-88
2022/04/01 13:04:29;;;;;;;29.23;10.13;;;;;;;;;;5013009;28;20207;-88
2022/04/01 13:07:07;;;;;;;30.40;9.90;;;;;;;;;;5013082;28;20238;-88
2022/04/01 13:09:47;;;;;;;17.60;8.13;;;;;;;;;;5013364;28;20206;-88
2022/04/01 13:12:14;;;;;;;30.47;10.17;;;;;;;;;;5013419;28;20665;-89
2022/04/01 13:14:41;;;;;;;23.53;8.07;;;;;;;;;;5012182;28;20200;-88
2022/04/01 13:17:13;;;;;;;31.87;7.20;;;;;;;;;;5013386;28;20225;-88
2022/04/01 13:19:43;;;;;;;29.97;9.53;;;;;;;;;;5013100;28;20683;-88
2022/04/01 13:22:10;;;;;;;22.37;7.43;;;;;;;;;;5013155;28;20660;-88
2022/04/01 13:24:40;;;;;;;26.23;9.03;;;;;;;;;;5012935;28;20218;-88
2022/04/01 13:27:10;;;;;;;19.67;7.10;;;;;;;;;;5012779;28;20227;-88
2022/04/01 13:29:37;;;;;;;31.43;7.73;;;;;;;;;;5013223;28;20643;-89
2022/04/01 13:32:05;;;;;;;24.40;8.60;;;;;;;;;;5012729;28;20199;-88
2022/04/01 13:34:33;;;;;;;24.73;10.13;;;;;;;;;;5012448;28;20230;-88
2022/04/01 13:37:00;;;;;;;55.33;21.70;;;;;;;;;;5012819;28;20195;-89
2022/04/01 13:39:28;;;;;;;56.83;19.80;;;;;;;;;;5012938;28;20202;-87
2022/04/01 13:41:58;;;;;;;40.43;16.20;;;;;;;;;;5012713;28;20202;-88
2022/04/01 13:44:26;;;;;;;28.47;13.60;;;;;;;;;;5013246;28;20570;-88
2022/04/01 13:46:53;;;;;;;23.37;8.77;;;;;;;;;;5012588;28;20236;-88
2022/04/01 13:49:21;;;;;;;29.90;8.60;;;;;;;;;;5012859;28;20201;-88
2022/04/01 13:51:48;;;;;;;18.23;6.93;;;;;;;;;;5012601;28;20211;-88
2022/04/01 13:54:16;;;;;;;30.13;9.23;;;;;;;;;;5012779;28;20201;-89
2022/04/01 13:56:45;;;;;;;23.23;7.73;;;;;;;;;;5012675;28;20216;-88
2022/04/01 13:59:14;;;;;;;22.63;7.57;;;;;;;;;;5012814;28;20559;-88
2022/04/01 14:01:41;;;;;;;24.80;7.80;;;;;;;;;;5012444;28;20666;-88
2022/04/01 14:04:08;;;;;;;20.00;8.47;;;;;;;;;;5012552;28;20209;-88
2022/04/01 14:06:36;;;;;;;30.50;8.83;;;;;;;;;;5012260;28;20223;-88
2022/04/01 14:09:05;;;;;;;29.97;8.67;;;;;;;;;;5012729;28;20672;-88
2022/04/01 14:11:33;;;;;;;23.40;5.80;;;;;;;;;;5012195;28;20293;-89
2022/04/01 14:14:01;;;;;;;20.50;7.70;;;;;;;;;;5028836;28;20202;-88
2022/04/01 14:16:29;;;;;;;30.27;11.47;;;;;;;;;;5032023;28;20240;-87
2022/04/01 14:18:57;;;;;;;23.27;8.70;;;;;;;;;;5031635;28;20201;-89
2022/04/01 14:21:24;;;;;;;37.80;10.83;;;;;;;;;;5012727;28;20294;-88
2022/04/01 14:23:51;;;;;;;22.23;8.00;;;;;;;;;;5013377;28;20233;-87
2022/04/01 14:26:18;;;;;;;28.20;8.03;;;;;;;;;;5020424;28;20254;-85
2022/04/01 14:28:46;;;;;;;23.73;8.57;;;;;;;;;;5033015;28;20212;-86
2022/04/01 14:31:14;;;;;;;27.67;9.23;;;;;;;;;;5034858;28;20240;-84
2022/04/01 14:33:43;;;;;;;31.30;9.50;;;;;;;;;;5018086;28;20297;-85
2022/04/01 14:36:11;;;;;;;30.77;10.07;;;;;;;;;;5000866;28;20242;-86
2022/04/01 14:38:39;;;;;;;32.70;10.90;;;;;;;;;;5012204;28;20292;-86
2022/04/01 14:41:06;;;;;;;33.20;9.23;;;;;;;;;;5014994;28;20584;-86
2022/04/01 14:43:33;;;;;;;38.00;12.90;;;;;;;;;;5014963;28;20204;-86
2022/04/01 14:46:01;;;;;;;27.40;8.97;;;;;;;;;;5015048;28;20236;-86
2022/04/01 14:48:29;;;;;;;34.07;12.37;;;;;;;;;;5014354;28;20207;-85
2022/04/01 14:50:57;;;;;;;38.50;12.60;;;;;;;;;;5014812;28;20656;-86
2022/04/01 14:53:24;;;;;;;27.60;11.70;;;;;;;;;;5014826;28;20205;-86